KSAF/SAF METAR and TAF weather

Enter ICAO airport designator
Station Type Date Time Source
KSAF METAR 2020/03/28 13:53 UTC NOAA

KSAF 281353Z 26005KT 10SM CLR M03/M08 A3000 RMK AO2 SLP148 T10281078


Station Type Date Time Source
KSAF Decoded METAR 2020/03/28 13:53 UTC NOAA

SANTA FE COUNTY MUNICIPAL, NM, United States (KSAF) 35-37N 106-05W 1930M
Mar 28, 2020 - 09:53 AM EDT / 2020.03.28 1353 UTC
Wind: from the W (260 degrees) at 6 MPH (5 KT):0
Visibility: 10 mile(s):0
Sky conditions: clear
Temperature: 27.0 F (-2.8 C)
Windchill: 19 F (-7 C):1
Dew Point: 18.0 F (-7.8 C)
Relative Humidity: 68%
Pressure (altimeter): 30 in. Hg (1015 hPa)
ob: KSAF 281353Z 26005KT 10SM CLR M03/M08 A3000 RMK AO2 SLP148 T10281078
cycle: 14

Station Type Date Time Source
KSAF TAF 2020/03/28 12:42 UTC NOAA

TAF KSAF 281141Z 2812/2912 27011KT P6SM BKN050
FM281500 29015G22KT P6SM SCT050
FM281800 29020G28KT P6SM FEW060
FM290100 33011KT P6SM SKC
FM290300 35006KT P6SM FEW250

Example: see airport list